createdAt,value
2018-01-24T00:00:27.092Z,6.4
2018-01-24T00:01:26.416Z,6.4
2018-01-24T00:02:26.467Z,6.4
2018-01-24T00:03:26.424Z,6.4
2018-01-24T00:04:26.056Z,6.4
2018-01-24T00:05:26.231Z,6.4
2018-01-24T00:06:26.018Z,6.4
2018-01-24T00:07:26.403Z,6.4
2018-01-24T00:08:25.869Z,6.4
2018-01-24T00:09:26.061Z,6.4
2018-01-24T00:10:26.010Z,6.4
2018-01-24T00:11:25.789Z,6.4
2018-01-24T00:12:25.641Z,6.4
2018-01-24T00:13:25.724Z,6.4
2018-01-24T00:14:25.805Z,6.4
2018-01-24T00:15:25.336Z,6.4
2018-01-24T00:16:25.391Z,6.4
2018-01-24T00:17:25.307Z,6.4
2018-01-24T00:18:25.530Z,6.4
2018-01-24T00:19:25.419Z,6.4
2018-01-24T00:20:25.228Z,6.4
2018-01-24T00:21:24.925Z,6.4
2018-01-24T00:22:24.867Z,6.4
2018-01-24T00:23:24.811Z,6.4
2018-01-24T00:24:24.763Z,6.4
2018-01-24T00:25:24.951Z,6.4
2018-01-24T00:26:25.060Z,6.4
2018-01-24T00:27:24.802Z,6.4
2018-01-24T00:28:24.523Z,6.4
2018-01-24T00:29:24.481Z,6.4
2018-01-24T00:30:24.590Z,6.4
2018-01-24T00:31:24.240Z,6.4
2018-01-24T00:32:24.109Z,6.4
2018-01-24T00:33:24.503Z,6.4
2018-01-24T00:34:24.268Z,6.3
2018-01-24T00:35:23.940Z,6.4
2018-01-24T00:36:24.544Z,6.4
2018-01-24T00:37:23.886Z,6.4
2018-01-24T00:38:23.973Z,6.4
2018-01-24T00:39:24.039Z,6.4
2018-01-24T00:40:23.693Z,6.4
2018-01-24T00:41:23.657Z,6.4
2018-01-24T00:42:23.816Z,6.4
2018-01-24T00:43:23.883Z,6.4
2018-01-24T00:44:23.630Z,6.3
2018-01-24T00:45:23.202Z,6.4
2018-01-24T00:46:23.296Z,6.4
2018-01-24T00:47:22.973Z,6.3
2018-01-24T00:48:23.347Z,6.3
2018-01-24T00:49:22.997Z,6.4
2018-01-24T00:50:23.018Z,6.4
2018-01-24T00:51:23.004Z,6.4
2018-01-24T00:52:22.966Z,6.4
2018-01-24T00:53:23.095Z,6.3
2018-01-24T00:54:22.533Z,6.4
2018-01-24T00:55:22.901Z,6.4
2018-01-24T00:56:22.532Z,6.4
2018-01-24T00:57:22.453Z,6.4
2018-01-24T00:58:22.775Z,6.4
2018-01-24T00:59:22.236Z,6.4
2018-01-24T01:00:22.609Z,6.4
2018-01-24T01:01:22.965Z,6.4
2018-01-24T01:02:22.194Z,6.4
2018-01-24T01:03:22.427Z,6.4
2018-01-24T01:04:21.998Z,6.4
2018-01-24T01:05:22.554Z,6.4
2018-01-24T01:06:21.981Z,6.4
2018-01-24T01:07:21.716Z,6.4
2018-01-24T01:08:21.852Z,6.4
2018-01-24T01:09:21.637Z,6.4
2018-01-24T01:10:21.637Z,6.4
2018-01-24T01:11:21.508Z,6.4
2018-01-24T01:12:21.507Z,6.4
2018-01-24T01:13:21.967Z,6.4
2018-01-24T01:14:21.357Z,6.4
2018-01-24T01:15:21.214Z,6.4
2018-01-24T01:16:21.556Z,6.4
2018-01-24T01:17:21.257Z,6.4
2018-01-24T01:18:21.166Z,6.4
2018-01-24T01:19:21.154Z,6.4
2018-01-24T01:20:20.831Z,6.4
2018-01-24T01:21:21.199Z,6.4
2018-01-24T01:22:20.841Z,6.4
2018-01-24T01:23:20.711Z,6.4
2018-01-24T01:24:20.617Z,6.4
2018-01-24T01:25:20.865Z,6.4
2018-01-24T01:26:20.459Z,6.4
2018-01-24T01:27:20.898Z,6.4
2018-01-24T01:28:21.013Z,6.4
2018-01-24T01:29:20.495Z,6.4
2018-01-24T01:30:20.201Z,6.4
2018-01-24T01:31:20.474Z,6.4
2018-01-24T01:32:20.087Z,6.4
2018-01-24T01:33:20.312Z,6.4
2018-01-24T01:34:20.159Z,6.4
2018-01-24T01:35:19.792Z,6.4
2018-01-24T01:36:19.866Z,6.4
2018-01-24T01:37:19.944Z,6.4
2018-01-24T01:38:19.667Z,6.4
2018-01-24T01:39:19.505Z,6.4
2018-01-24T01:40:19.329Z,6.3
2018-01-24T01:41:19.309Z,6.4
2018-01-24T01:42:19.635Z,6.4
2018-01-24T01:43:19.290Z,6.4
2018-01-24T01:44:19.495Z,6.3
2018-01-24T01:45:19.211Z,6.4
2018-01-24T01:46:19.021Z,6.3
2018-01-24T01:47:19.613Z,6.3
2018-01-24T01:48:19.286Z,6.4
2018-01-24T01:49:19.529Z,6.3
2018-01-24T01:50:18.772Z,6.4
2018-01-24T01:51:18.766Z,6.4
2018-01-24T01:52:18.732Z,6.3
2018-01-24T01:53:18.482Z,6.3
2018-01-24T01:54:18.531Z,6.3
2018-01-24T01:55:18.338Z,6.4
2018-01-24T01:56:18.509Z,6.3
2018-01-24T01:57:18.687Z,6.3
2018-01-24T01:58:18.662Z,6.3
2018-01-24T01:59:18.160Z,6.3
2018-01-24T02:00:18.054Z,6.4
2018-01-24T02:01:18.120Z,6.3
2018-01-24T02:02:17.841Z,6.3
2018-01-24T02:03:17.836Z,6.3
2018-01-24T02:04:17.747Z,6.3
2018-01-24T02:05:17.547Z,6.3
2018-01-24T02:06:17.610Z,6.3
2018-01-24T02:07:17.321Z,6.3
2018-01-24T02:08:17.480Z,6.3
2018-01-24T02:09:17.554Z,6.3
2018-01-24T02:10:17.292Z,6.3
2018-01-24T02:11:17.185Z,6.3
2018-01-24T02:12:17.057Z,6.3
2018-01-24T02:13:17.235Z,6.3
2018-01-24T02:14:16.928Z,6.3
2018-01-24T02:15:17.600Z,6.3
2018-01-24T02:16:16.660Z,6.3
2018-01-24T02:17:17.055Z,6.3
2018-01-24T02:18:16.636Z,6.3
2018-01-24T02:19:16.613Z,6.3
2018-01-24T02:20:17.103Z,6.3
2018-01-24T02:21:16.695Z,6.3
2018-01-24T02:22:16.199Z,6.3
2018-01-24T02:23:16.169Z,6.3
2018-01-24T02:24:16.032Z,6.3
2018-01-24T02:25:16.229Z,6.3
2018-01-24T02:26:15.767Z,6.3
2018-01-24T02:27:15.826Z,6.3
2018-01-24T02:28:15.863Z,6.3
2018-01-24T02:29:15.727Z,6.3
2018-01-24T02:30:16.007Z,6.3
2018-01-24T02:31:15.614Z,6.3
2018-01-24T02:32:15.568Z,6.3
2018-01-24T02:33:15.420Z,6.3
2018-01-24T02:34:15.234Z,6.3
2018-01-24T02:35:15.425Z,6.3
2018-01-24T02:36:15.130Z,6.3
2018-01-24T02:37:15.426Z,6.3
2018-01-24T02:38:15.372Z,6.3
2018-01-24T02:39:14.994Z,6.3
2018-01-24T02:40:15.161Z,6.3
2018-01-24T02:41:14.806Z,6.3
2018-01-24T02:42:14.921Z,6.3
2018-01-24T02:43:14.561Z,6.3
2018-01-24T02:44:14.863Z,6.3
2018-01-24T02:45:14.716Z,6.3
2018-01-24T02:46:14.943Z,6.3
2018-01-24T02:47:14.579Z,6.3
2018-01-24T02:48:14.209Z,6.3
2018-01-24T02:49:13.980Z,6.3
2018-01-24T02:50:14.519Z,6.3
2018-01-24T02:51:13.999Z,6.3
2018-01-24T02:52:13.823Z,6.3
2018-01-24T02:53:13.767Z,6.3
2018-01-24T02:54:14.256Z,6.3
2018-01-24T02:55:13.673Z,6.3
2018-01-24T02:56:13.742Z,6.3
2018-01-24T02:57:13.589Z,6.3
2018-01-24T02:58:13.272Z,6.3
2018-01-24T02:59:13.310Z,6.2
2018-01-24T03:00:13.446Z,6.1
2018-01-24T03:01:13.017Z,6.2
2018-01-24T03:02:13.431Z,6.2
2018-01-24T03:03:13.099Z,6.1
2018-01-24T03:04:12.941Z,6.1
2018-01-24T03:05:12.913Z,6.1
2018-01-24T03:06:13.177Z,6.1
2018-01-24T03:07:12.784Z,6.1
2018-01-24T03:08:13.169Z,6.1
2018-01-24T03:09:12.806Z,6.1
2018-01-24T03:10:12.709Z,6.1
2018-01-24T03:11:12.415Z,6.1
2018-01-24T03:12:12.399Z,6.1
2018-01-24T03:13:12.555Z,6.1
2018-01-24T03:14:12.168Z,6.1
2018-01-24T03:15:11.943Z,6.1
2018-01-24T03:16:11.936Z,6.1
2018-01-24T03:17:12.107Z,6.1
2018-01-24T03:18:11.929Z,6.1
2018-01-24T03:19:11.893Z,6.1
2018-01-24T03:20:11.720Z,6.1
2018-01-24T03:21:11.836Z,6.1
2018-01-24T03:22:11.891Z,6.1
2018-01-24T03:23:11.404Z,6.2
2018-01-24T03:24:11.458Z,6.2
2018-01-24T03:25:11.349Z,6.2
2018-01-24T03:26:11.524Z,6.2
2018-01-24T03:27:11.168Z,6.2
2018-01-24T03:28:11.565Z,6.2
2018-01-24T03:29:11.395Z,6.2
2018-01-24T03:30:10.800Z,6.2
2018-01-24T03:31:11.261Z,6.2
2018-01-24T03:32:10.732Z,6.3
2018-01-24T03:33:10.673Z,6.3
2018-01-24T03:34:10.867Z,6.3
2018-01-24T03:35:10.670Z,6.3
2018-01-24T03:36:10.526Z,6.3
2018-01-24T03:37:10.496Z,6.3
2018-01-24T03:38:10.673Z,6.3
2018-01-24T03:39:10.620Z,6.3
2018-01-24T03:40:10.266Z,6.3
2018-01-24T03:41:10.014Z,6.3
2018-01-24T03:42:10.566Z,6.3
2018-01-24T03:43:09.890Z,6.3
2018-01-24T03:44:10.271Z,6.3
2018-01-24T03:45:09.814Z,6.3
2018-01-24T03:46:10.035Z,6.3
2018-01-24T03:47:09.524Z,6.3
2018-01-24T03:48:09.542Z,6.3
2018-01-24T03:49:09.770Z,6.3
2018-01-24T03:50:09.508Z,6.3
2018-01-24T03:51:09.274Z,6.3
2018-01-24T03:52:09.297Z,6.3
2018-01-24T03:53:09.464Z,6.3
2018-01-24T03:54:09.336Z,6.3
2018-01-24T03:55:09.096Z,6.3
2018-01-24T03:56:08.998Z,6.3
2018-01-24T03:57:09.015Z,6.3
2018-01-24T03:58:08.676Z,6.3
2018-01-24T03:59:08.553Z,6.3
2018-01-24T04:00:08.741Z,6.3
2018-01-24T04:01:08.798Z,6.3
2018-01-24T04:02:08.358Z,6.3
2018-01-24T04:03:08.433Z,6.3
2018-01-24T04:04:08.509Z,6.3
2018-01-24T04:05:08.329Z,6.3
2018-01-24T04:06:07.989Z,6.3
2018-01-24T04:07:08.632Z,6.3
2018-01-24T04:08:07.838Z,6.3
2018-01-24T04:09:08.131Z,6.3
2018-01-24T04:10:07.899Z,6.3
2018-01-24T04:11:07.603Z,6.3
2018-01-24T04:12:07.956Z,6.3
2018-01-24T04:13:07.635Z,6.3
2018-01-24T04:14:07.418Z,6.3
2018-01-24T04:15:07.638Z,6.3
2018-01-24T04:16:07.586Z,6.3
2018-01-24T04:17:07.285Z,6.3
2018-01-24T04:18:07.367Z,6.3
2018-01-24T04:19:07.469Z,6.3
2018-01-24T04:20:06.894Z,6.3
2018-01-24T04:21:06.831Z,6.3
2018-01-24T04:22:07.102Z,6.3
2018-01-24T04:23:06.611Z,6.3
2018-01-24T04:24:06.759Z,6.3
2018-01-24T04:25:06.466Z,6.3
2018-01-24T04:26:06.571Z,6.3
2018-01-24T04:27:06.755Z,6.3
2018-01-24T04:28:06.651Z,6.3
2018-01-24T04:29:06.220Z,6.3
2018-01-24T04:30:06.219Z,6.3
2018-01-24T04:31:06.368Z,6.3
2018-01-24T04:32:05.943Z,6.3
2018-01-24T04:33:06.139Z,6.3
2018-01-24T04:34:05.975Z,6.3
2018-01-24T04:35:06.027Z,6.3
2018-01-24T04:36:06.052Z,6.3
2018-01-24T04:37:05.548Z,6.3
2018-01-24T04:38:05.530Z,6.3
2018-01-24T04:39:05.440Z,6.3
2018-01-24T04:40:05.761Z,6.3
2018-01-24T04:41:05.330Z,6.3
2018-01-24T04:42:05.319Z,6.3
2018-01-24T04:43:05.365Z,6.3
2018-01-24T04:44:05.033Z,6.3
2018-01-24T04:45:05.269Z,6.3
2018-01-24T04:46:05.017Z,6.3
2018-01-24T04:47:04.662Z,6.3
2018-01-24T04:48:04.958Z,6.3
2018-01-24T04:49:04.486Z,6.3
2018-01-24T04:50:04.773Z,6.3
2018-01-24T04:51:04.677Z,6.3
2018-01-24T04:52:04.593Z,6.3
2018-01-24T04:53:04.225Z,6.3
2018-01-24T04:54:04.371Z,6.3
2018-01-24T04:55:04.200Z,6.3
2018-01-24T04:56:04.004Z,6.3
2018-01-24T04:57:04.249Z,6.3
2018-01-24T04:58:04.207Z,6.3
2018-01-24T04:59:04.125Z,6.2
2018-01-24T05:00:04.050Z,6.2
2018-01-24T05:01:03.627Z,6.2
2018-01-24T05:02:03.621Z,6.2
2018-01-24T05:03:04.158Z,6.2
2018-01-24T05:04:03.797Z,6.2
2018-01-24T05:05:03.582Z,6.2
2018-01-24T05:06:03.396Z,6.2
2018-01-24T05:07:03.743Z,6.2
2018-01-24T05:08:03.635Z,6.1
2018-01-24T05:09:03.760Z,6.1
2018-01-24T05:10:02.995Z,6.2
2018-01-24T05:11:02.965Z,6.1
2018-01-24T05:12:03.188Z,6.1
2018-01-24T05:13:02.679Z,6.1
2018-01-24T05:14:02.564Z,6.1
2018-01-24T05:15:02.921Z,6.1
2018-01-24T05:16:02.594Z,6.1
2018-01-24T05:17:02.732Z,6.1
2018-01-24T05:18:02.655Z,6.1
2018-01-24T05:19:02.403Z,6.1
2018-01-24T05:20:02.535Z,6.1
2018-01-24T05:21:02.124Z,6.1
2018-01-24T05:22:02.504Z,6.1
2018-01-24T05:23:02.180Z,6.1
2018-01-24T05:24:01.921Z,6.1
2018-01-24T05:25:01.904Z,6.1
2018-01-24T05:26:02.130Z,6.1
2018-01-24T05:27:02.383Z,6.1
2018-01-24T05:28:01.863Z,6.1
2018-01-24T05:29:01.920Z,6.1
2018-01-24T05:30:01.602Z,6.1
2018-01-24T05:31:01.692Z,6.1
2018-01-24T05:32:01.725Z,6.1
2018-01-24T05:33:01.441Z,6.1
2018-01-24T05:34:01.506Z,6.1
2018-01-24T05:35:01.073Z,6.1
2018-01-24T05:36:01.244Z,6.1
2018-01-24T05:37:00.783Z,6.1
2018-01-24T05:38:01.028Z,6.1
2018-01-24T05:39:00.791Z,6.1
2018-01-24T05:40:01.007Z,6.1
2018-01-24T05:41:00.409Z,6.1
2018-01-24T05:42:00.761Z,6.1
2018-01-24T05:43:00.526Z,6.1
2018-01-24T05:44:00.342Z,6.1
2018-01-24T05:45:00.826Z,6.1
2018-01-24T05:46:00.258Z,6.1
2018-01-24T05:47:00.741Z,6.1
2018-01-24T05:48:00.045Z,6.1
2018-01-24T05:49:00.007Z,6.1
2018-01-24T05:49:59.862Z,6
2018-01-24T05:51:00.355Z,6
2018-01-24T05:51:59.933Z,6
2018-01-24T05:53:00.110Z,6
2018-01-24T05:53:59.503Z,6
2018-01-24T05:54:59.316Z,6
2018-01-24T05:55:59.650Z,6
2018-01-24T05:56:59.328Z,6
2018-01-24T05:57:59.395Z,5.9
2018-01-24T05:58:58.976Z,5.9
2018-01-24T05:59:59.387Z,6
2018-01-24T06:00:58.888Z,6
2018-01-24T06:01:58.773Z,6
2018-01-24T06:02:58.889Z,5.9
2018-01-24T06:03:58.800Z,5.9
2018-01-24T06:04:58.866Z,5.9
2018-01-24T06:05:58.690Z,5.9
2018-01-24T06:06:59.045Z,5.9
2018-01-24T06:07:58.967Z,5.9
2018-01-24T06:08:58.583Z,5.9
2018-01-24T06:09:58.251Z,5.9
2018-01-24T06:10:58.740Z,5.9
2018-01-24T06:11:58.330Z,5.9
2018-01-24T06:12:58.633Z,5.9
2018-01-24T06:13:58.192Z,5.9
2018-01-24T06:14:57.975Z,6
2018-01-24T06:15:57.785Z,6
2018-01-24T06:16:58.234Z,6
2018-01-24T06:17:57.764Z,6
2018-01-24T06:18:57.841Z,6
2018-01-24T06:19:57.857Z,6
2018-01-24T06:20:57.700Z,6
2018-01-24T06:21:57.513Z,6
2018-01-24T06:22:57.134Z,6
2018-01-24T06:23:57.400Z,6
2018-01-24T06:24:57.124Z,6
2018-01-24T06:25:57.167Z,6
2018-01-24T06:26:56.991Z,6
2018-01-24T06:27:57.011Z,6
2018-01-24T06:28:57.018Z,6
2018-01-24T06:29:56.593Z,6.1
2018-01-24T06:30:56.681Z,6.1
2018-01-24T06:31:56.770Z,6.1
2018-01-24T06:32:56.460Z,6.1
2018-01-24T06:33:56.571Z,6.1
2018-01-24T06:34:56.243Z,6.1
2018-01-24T06:35:56.492Z,6.1
2018-01-24T06:36:56.360Z,6.1
2018-01-24T06:37:56.069Z,6.1
2018-01-24T06:38:55.967Z,6.1
2018-01-24T06:39:56.039Z,6.1
2018-01-24T06:40:55.770Z,6.1
2018-01-24T06:41:55.999Z,6.2
2018-01-24T06:42:55.704Z,6.2
2018-01-24T06:43:55.657Z,6.2
2018-01-24T06:44:55.603Z,6.2
2018-01-24T06:45:55.578Z,6.3
2018-01-24T06:46:55.246Z,6.3
2018-01-24T06:47:55.435Z,6.3
2018-01-24T06:48:55.188Z,6.3
2018-01-24T06:49:55.053Z,6.3
2018-01-24T06:50:55.121Z,6.3
2018-01-24T06:51:55.033Z,6.3
2018-01-24T06:52:55.313Z,6.4
2018-01-24T06:53:55.007Z,6.4
2018-01-24T06:54:54.708Z,6.3
2018-01-24T06:55:54.878Z,6.4
2018-01-24T06:56:54.608Z,6.4
2018-01-24T06:57:54.739Z,6.4
2018-01-24T06:58:54.355Z,6.4
2018-01-24T06:59:54.660Z,6.4
2018-01-24T07:00:54.419Z,6.4
2018-01-24T07:01:54.113Z,6.4
2018-01-24T07:02:54.303Z,6.4
2018-01-24T07:03:54.328Z,6.5
2018-01-24T07:04:53.782Z,6.5
2018-01-24T07:05:53.943Z,6.5
2018-01-24T07:06:54.007Z,6.5
2018-01-24T07:07:54.330Z,6.5
2018-01-24T07:08:54.077Z,6.5
2018-01-24T07:09:53.391Z,6.5
2018-01-24T07:10:53.478Z,6.6
2018-01-24T07:11:53.636Z,6.6
2018-01-24T07:12:53.984Z,6.6
2018-01-24T07:13:53.287Z,6.6
2018-01-24T07:14:53.117Z,6.6
2018-01-24T07:15:53.558Z,6.6
2018-01-24T07:16:53.012Z,6.6
2018-01-24T07:17:53.336Z,6.6
2018-01-24T07:18:52.717Z,6.6
2018-01-24T07:19:52.913Z,6.6
2018-01-24T07:20:52.777Z,6.6
2018-01-24T07:21:52.433Z,6.6
2018-01-24T07:22:52.706Z,6.7
2018-01-24T07:23:52.520Z,6.7
2018-01-24T07:24:52.836Z,6.7
2018-01-24T07:25:52.724Z,6.7
2018-01-24T07:26:52.242Z,6.8
2018-01-24T07:27:52.224Z,6.8
2018-01-24T07:28:51.990Z,6.8
2018-01-24T07:29:52.428Z,6.8
2018-01-24T07:30:52.025Z,6.8
2018-01-24T07:31:51.830Z,6.9
2018-01-24T07:32:51.866Z,6.9
2018-01-24T07:33:51.525Z,6.9
2018-01-24T07:34:51.892Z,6.9
2018-01-24T07:35:51.812Z,7
2018-01-24T07:36:51.850Z,7
2018-01-24T07:37:51.428Z,7.1
2018-01-24T07:38:51.275Z,7.3
2018-01-24T07:39:51.145Z,7.4
2018-01-24T07:40:51.195Z,7.6
2018-01-24T07:41:50.937Z,7.8
2018-01-24T07:42:51.552Z,8.1
2018-01-24T07:43:50.956Z,8.3
2018-01-24T07:44:50.806Z,8.4
2018-01-24T07:45:50.605Z,8.6
2018-01-24T07:46:51.054Z,8.9
2018-01-24T07:47:50.887Z,9.1
2018-01-24T07:48:50.546Z,9.4
2018-01-24T07:49:50.673Z,9.6
2018-01-24T07:50:50.662Z,9.8
2018-01-24T07:51:50.538Z,10.1
2018-01-24T07:52:50.413Z,10.3
2018-01-24T07:53:50.573Z,10.6
2018-01-24T07:54:50.252Z,10.8
2018-01-24T07:55:50.223Z,11.1
2018-01-24T07:56:50.278Z,11.3
2018-01-24T07:57:50.163Z,11.5
2018-01-24T07:58:49.862Z,11.7
2018-01-24T07:59:49.937Z,11.9
2018-01-24T08:00:49.797Z,12.1
2018-01-24T08:01:49.520Z,12.3
2018-01-24T08:02:49.733Z,12.5
2018-01-24T08:03:49.463Z,12.7
2018-01-24T08:04:49.403Z,12.9
2018-01-24T08:05:49.265Z,13.1
2018-01-24T08:06:49.193Z,13.3
2018-01-24T08:07:49.161Z,13.5
2018-01-24T08:08:49.530Z,13.8
2018-01-24T08:09:49.207Z,14.1
2018-01-24T08:10:49.154Z,14.4
2018-01-24T08:11:48.921Z,14.6
2018-01-24T08:12:49.028Z,15
2018-01-24T08:13:49.574Z,15.3
2018-01-24T08:14:48.807Z,15.6
2018-01-24T08:15:48.972Z,15.9
2018-01-24T08:16:49.021Z,16.3
2018-01-24T08:17:48.712Z,16.5
2018-01-24T08:18:48.419Z,16.8
2018-01-24T08:19:48.424Z,16.9
2018-01-24T08:20:48.416Z,17.1
2018-01-24T08:21:48.504Z,17.3
2018-01-24T08:22:48.497Z,17.3
2018-01-24T08:23:48.181Z,17.3
2018-01-24T08:24:48.142Z,17.3
2018-01-24T08:25:48.010Z,17.2
2018-01-24T08:26:47.875Z,17.2
2018-01-24T08:27:47.758Z,17.1
2018-01-24T08:28:47.866Z,17.1
2018-01-24T08:29:48.340Z,16.9
2018-01-24T08:30:47.961Z,16.8
2018-01-24T08:31:47.537Z,16.7
2018-01-24T08:32:47.588Z,16.5
2018-01-24T08:33:47.607Z,16.3
2018-01-24T08:34:47.594Z,16.2
2018-01-24T08:35:47.374Z,16
2018-01-24T08:36:47.715Z,15.9
2018-01-24T08:37:47.230Z,15.9
2018-01-24T08:38:47.202Z,15.9
2018-01-24T08:39:47.102Z,15.8
2018-01-24T08:40:46.879Z,15.8
2018-01-24T08:41:47.251Z,15.8
2018-01-24T08:42:46.819Z,15.6
2018-01-24T08:43:46.885Z,15.5
2018-01-24T08:44:47.087Z,15.3
2018-01-24T08:45:46.720Z,15.1
2018-01-24T08:46:46.792Z,14.9
2018-01-24T08:47:46.380Z,14.8
2018-01-24T08:48:46.692Z,14.6
2018-01-24T08:49:46.317Z,14.4
2018-01-24T08:50:46.201Z,14.1
2018-01-24T08:51:46.145Z,14
2018-01-24T08:52:46.406Z,13.8
2018-01-24T08:53:46.333Z,13.6
2018-01-24T08:54:45.942Z,13.4
2018-01-24T08:55:46.095Z,13.2
2018-01-24T08:56:46.254Z,12.9
2018-01-24T08:57:45.903Z,12.8
2018-01-24T08:58:45.720Z,12.6
2018-01-24T08:59:45.589Z,12.4
2018-01-24T09:00:45.663Z,12.3
2018-01-24T09:01:45.566Z,12.1
2018-01-24T09:02:45.735Z,11.9
2018-01-24T09:07:31.126Z,11.8
2018-01-24T09:08:31.201Z,11.2
2018-01-24T09:13:49.692Z,11.1
2018-01-24T09:18:10.881Z,10.6
2018-01-24T09:18:38.571Z,10.2
2018-01-24T09:20:38.616Z,10.1
2018-01-24T09:20:41.263Z,10.1
2018-01-24T09:21:41.361Z,9.9
2018-01-24T09:22:40.649Z,9.8
2018-01-24T09:23:40.780Z,9.7
2018-01-24T09:24:42.714Z,9.6
2018-01-24T09:25:41.177Z,9.5
2018-01-24T09:26:40.517Z,9.4
2018-01-24T09:27:40.209Z,9.3
2018-01-24T09:28:44.910Z,9.3
2018-01-24T09:30:41.055Z,9.1
2018-01-24T09:31:43.937Z,9
2018-01-24T09:32:40.406Z,8.9
2018-01-24T09:33:39.858Z,8.9
2018-01-24T09:34:39.750Z,8.8
2018-01-24T09:35:39.994Z,8.8
2018-01-24T09:36:39.930Z,8.7
2018-01-24T09:37:39.625Z,8.6
2018-01-24T09:38:39.897Z,8.5
2018-01-24T09:39:39.223Z,8.4
2018-01-24T09:40:39.573Z,8.4
2018-01-24T09:41:39.868Z,8.3
2018-01-24T09:42:39.615Z,8.3
2018-01-24T09:43:38.952Z,8.2
2018-01-24T09:44:39.287Z,8.1
2018-01-24T09:45:39.147Z,8.1
2018-01-24T09:46:39.027Z,8.1
2018-01-24T09:47:39.203Z,8
2018-01-24T09:48:38.940Z,7.9
2018-01-24T09:49:38.662Z,7.9
2018-01-24T09:50:38.988Z,7.9
2018-01-24T09:51:38.859Z,7.8
2018-01-24T09:52:38.699Z,7.8
2018-01-24T09:53:38.378Z,7.8
2018-01-24T09:54:38.450Z,7.8
2018-01-24T09:55:38.452Z,7.8
2018-01-24T09:56:38.577Z,7.8
2018-01-24T09:57:38.020Z,7.8
2018-01-24T09:58:37.965Z,7.7
2018-01-24T09:59:37.931Z,7.7
2018-01-24T10:00:37.711Z,7.7
2018-01-24T10:01:37.728Z,7.7
2018-01-24T10:02:38.264Z,7.6
2018-01-24T10:03:37.540Z,7.7
2018-01-24T10:04:37.543Z,7.6
2018-01-24T10:05:37.758Z,7.7
2018-01-24T10:06:37.817Z,7.7
2018-01-24T10:07:37.299Z,7.6
2018-01-24T10:08:37.323Z,7.6
2018-01-24T10:09:37.098Z,7.6
2018-01-24T10:10:37.117Z,7.6
2018-01-24T10:11:37.422Z,7.6
2018-01-24T10:12:36.724Z,7.6
2018-01-24T10:13:36.769Z,7.6
2018-01-24T10:14:36.428Z,7.5
2018-01-24T10:15:36.641Z,7.5
2018-01-24T10:16:36.593Z,7.5
2018-01-24T10:17:36.381Z,7.4
2018-01-24T10:18:36.296Z,7.4
2018-01-24T10:19:36.467Z,7.4
2018-01-24T10:20:36.404Z,7.3
2018-01-24T10:21:36.251Z,7.2
2018-01-24T10:22:36.248Z,7.1
2018-01-24T10:23:36.531Z,7
2018-01-24T10:24:35.862Z,6.9
2018-01-24T10:25:35.620Z,6.9
2018-01-24T10:26:35.883Z,6.8
2018-01-24T10:27:36.049Z,6.8
2018-01-24T10:28:35.564Z,6.7
2018-01-24T10:29:35.394Z,6.7
2018-01-24T10:30:35.469Z,6.6
2018-01-24T10:31:35.598Z,6.7
2018-01-24T10:32:35.388Z,6.6
2018-01-24T10:33:35.113Z,6.6
2018-01-24T10:34:35.351Z,6.6
2018-01-24T10:35:34.924Z,6.6
2018-01-24T10:36:34.932Z,6.6
2018-01-24T10:37:34.951Z,6.6
2018-01-24T10:38:34.728Z,6.6
2018-01-24T10:39:34.446Z,6.6
2018-01-24T10:40:34.773Z,6.6
2018-01-24T10:41:34.441Z,6.6
2018-01-24T10:42:34.494Z,6.6
2018-01-24T10:43:34.797Z,6.6
2018-01-24T10:44:34.764Z,6.7
2018-01-24T10:45:34.336Z,6.1
2018-01-24T10:46:34.202Z,5.3
2018-01-24T10:47:34.413Z,4.7
2018-01-24T10:48:34.368Z,3.8
2018-01-24T10:49:34.130Z,3.5
2018-01-24T10:50:33.845Z,3
2018-01-24T10:51:34.042Z,2.9
2018-01-24T10:52:33.472Z,3.1
2018-01-24T10:53:33.777Z,2.9
2018-01-24T10:54:33.469Z,2.7
2018-01-24T10:55:33.457Z,2.6
2018-01-24T10:56:33.440Z,2.7
2018-01-24T10:57:33.603Z,2.9
2018-01-24T10:58:33.532Z,2.8
2018-01-24T10:59:33.602Z,2.7
2018-01-24T11:00:32.968Z,2.6
2018-01-24T11:01:33.118Z,2.4
2018-01-24T11:02:32.834Z,2.5
2018-01-24T11:03:32.656Z,2.6
2018-01-24T11:04:32.913Z,2.7
2018-01-24T11:05:32.940Z,2.4
2018-01-24T11:06:32.489Z,2.2
2018-01-24T11:07:32.513Z,2.3
2018-01-24T11:08:32.444Z,2.3
2018-01-24T11:09:32.646Z,2.4
2018-01-24T11:10:32.350Z,2.3
2018-01-24T11:11:32.698Z,2.1
2018-01-24T11:12:32.027Z,2.1
2018-01-24T11:13:32.901Z,2.3
2018-01-24T11:14:31.759Z,2.1
2018-01-24T11:15:31.988Z,2
2018-01-24T11:16:32.067Z,2.1
2018-01-24T11:17:31.645Z,2.1
2018-01-24T11:18:31.569Z,2.1
2018-01-24T11:19:31.599Z,2.3
2018-01-24T11:20:31.359Z,2.3
2018-01-24T11:21:31.849Z,2
2018-01-24T11:22:31.378Z,2.1
2018-01-24T11:23:31.046Z,2.1
2018-01-24T11:24:31.072Z,2.3
2018-01-24T11:25:30.989Z,2.4
2018-01-24T11:26:31.052Z,2.4
2018-01-24T11:27:31.046Z,2.5
2018-01-24T11:28:31.111Z,2.7
2018-01-24T11:29:30.827Z,2.4
2018-01-24T11:30:30.870Z,2.3
2018-01-24T11:31:31.228Z,2.3
2018-01-24T11:32:30.658Z,2.3
2018-01-24T11:33:30.749Z,2.3
2018-01-24T11:34:30.517Z,2.3
2018-01-24T11:35:30.558Z,2.6
2018-01-24T11:36:30.549Z,2.8
2018-01-24T11:37:30.090Z,2.9
2018-01-24T11:38:30.079Z,2.9
2018-01-24T11:39:30.041Z,3.1
2018-01-24T11:40:30.119Z,3.1
2018-01-24T11:41:29.965Z,3
2018-01-24T11:42:30.118Z,3.1
2018-01-24T11:43:30.015Z,3.2
2018-01-24T11:44:29.518Z,3.3
2018-01-24T11:45:29.449Z,3.3
2018-01-24T11:46:29.388Z,3.1
2018-01-24T11:47:29.847Z,3.1
2018-01-24T11:48:29.132Z,3.1
2018-01-24T11:49:29.354Z,3
2018-01-24T11:50:29.275Z,3.1
2018-01-24T11:51:29.301Z,3.2
2018-01-24T11:52:28.702Z,3.3
2018-01-24T11:53:28.853Z,3.4
2018-01-24T11:54:29.166Z,3.5
2018-01-24T11:55:28.612Z,3.6
2018-01-24T11:56:28.709Z,3.8
2018-01-24T11:57:28.539Z,3.8
2018-01-24T11:58:28.420Z,3.8
2018-01-24T11:59:28.671Z,3.6
2018-01-24T12:00:28.167Z,3.7
2018-01-24T12:01:28.239Z,3.9
2018-01-24T12:02:28.201Z,3.9
2018-01-24T12:03:27.833Z,4
2018-01-24T12:04:28.320Z,4.1
2018-01-24T12:05:28.068Z,3.9
2018-01-24T12:06:27.707Z,4
2018-01-24T12:07:28.040Z,4
2018-01-24T12:08:27.623Z,4.1
2018-01-24T12:09:27.604Z,4.2
2018-01-24T12:10:27.929Z,4.1
2018-01-24T12:11:27.874Z,3.8
2018-01-24T12:12:27.582Z,3.4
2018-01-24T12:13:27.558Z,3.3
2018-01-24T12:14:27.347Z,3.4
2018-01-24T12:15:27.026Z,3.3
2018-01-24T12:16:27.139Z,3.3
2018-01-24T12:17:27.009Z,3.1
2018-01-24T12:18:27.036Z,3.1
2018-01-24T12:19:26.853Z,2.9
2018-01-24T12:20:26.737Z,2.9
2018-01-24T12:21:26.828Z,2.8
2018-01-24T12:22:26.446Z,2.8
2018-01-24T12:23:26.357Z,2.8
2018-01-24T12:24:26.323Z,2.9
2018-01-24T12:25:26.529Z,3.1
2018-01-24T12:26:26.215Z,3.1
2018-01-24T12:27:26.400Z,3.1
2018-01-24T12:28:26.303Z,2.9
2018-01-24T12:29:26.540Z,3.1
2018-01-24T12:30:25.955Z,3.1
2018-01-24T12:31:25.904Z,3.1
2018-01-24T12:32:25.914Z,2.9
2018-01-24T12:33:25.672Z,3.1
2018-01-24T12:34:25.706Z,3
2018-01-24T12:35:25.574Z,3.1
2018-01-24T12:36:25.543Z,3.1
2018-01-24T12:37:25.523Z,3.1
2018-01-24T12:38:25.173Z,3.3
2018-01-24T12:39:25.364Z,3.3
2018-01-24T12:40:25.403Z,3.4
2018-01-24T12:41:25.167Z,3.4
2018-01-24T12:42:24.870Z,3.5
2018-01-24T12:43:25.099Z,3.6
2018-01-24T12:44:24.795Z,3.6
2018-01-24T12:45:24.665Z,3.5
2018-01-24T12:46:24.606Z,3.6
2018-01-24T12:47:24.555Z,3.6
2018-01-24T12:48:24.388Z,3.6
2018-01-24T12:49:24.510Z,3.6
2018-01-24T12:50:24.510Z,3.7
2018-01-24T12:51:24.455Z,3.8
2018-01-24T12:52:24.189Z,3.8
2018-01-24T12:53:24.081Z,3.9
2018-01-24T12:54:23.957Z,3.9
2018-01-24T12:55:24.298Z,3.8
2018-01-24T12:56:23.839Z,3.8
2018-01-24T12:57:24.059Z,3.9
2018-01-24T12:58:23.779Z,3.8
2018-01-24T12:59:23.536Z,3.9
2018-01-24T13:00:23.913Z,4
2018-01-24T13:01:24.140Z,4.1
2018-01-24T13:02:23.467Z,4
2018-01-24T13:03:23.350Z,4.1
2018-01-24T13:04:23.311Z,4.3
2018-01-24T13:05:23.099Z,4.2
2018-01-24T13:06:23.103Z,4.3
2018-01-24T13:07:22.993Z,4.2
2018-01-24T13:08:22.914Z,4.3
2018-01-24T13:09:22.817Z,4
2018-01-24T13:10:22.939Z,3.9
2018-01-24T13:11:22.921Z,3.8
2018-01-24T13:12:22.615Z,3.8
2018-01-24T13:13:22.652Z,3.7
2018-01-24T13:14:22.422Z,3.5
2018-01-24T13:15:22.437Z,3.4
2018-01-24T13:16:22.569Z,3.6
2018-01-24T13:17:22.494Z,3.7
2018-01-24T13:18:22.353Z,3.4
2018-01-24T13:19:22.124Z,3.4
2018-01-24T13:20:22.225Z,3.4
2018-01-24T13:21:22.569Z,3.4
2018-01-24T13:22:21.888Z,3.5
2018-01-24T13:23:21.900Z,3.4
2018-01-24T13:24:21.865Z,3.4
2018-01-24T13:25:21.949Z,3.4
2018-01-24T13:26:21.481Z,3.4
2018-01-24T13:27:21.759Z,3.3
2018-01-24T13:28:21.327Z,3.4
2018-01-24T13:29:21.255Z,3.5
2018-01-24T13:30:21.246Z,3.4
2018-01-24T13:31:21.319Z,3.4
2018-01-24T13:32:21.007Z,3.3
2018-01-24T13:33:21.181Z,3.3
2018-01-24T13:34:20.854Z,3.4
2018-01-24T13:35:21.013Z,3.4
2018-01-24T13:36:20.875Z,3.4
2018-01-24T13:37:20.965Z,3.2
2018-01-24T13:38:21.308Z,3
2018-01-24T13:39:20.634Z,2.8
2018-01-24T13:40:20.658Z,2.7
2018-01-24T13:41:20.217Z,2.6
2018-01-24T13:42:20.622Z,2.7
2018-01-24T13:43:20.587Z,2.8
2018-01-24T13:44:20.165Z,2.9
2018-01-24T13:45:19.999Z,2.9
2018-01-24T13:46:20.141Z,3
2018-01-24T13:47:19.845Z,3
2018-01-24T13:48:19.644Z,3.1
2018-01-24T13:49:19.741Z,3.1
2018-01-24T13:50:19.419Z,3.1
2018-01-24T13:51:19.653Z,3
2018-01-24T13:52:19.639Z,3.1
2018-01-24T13:53:19.273Z,3.1
2018-01-24T13:54:19.412Z,3.1
2018-01-24T13:55:19.201Z,3.2
2018-01-24T13:56:19.309Z,3.3
2018-01-24T13:57:19.124Z,3.1